Time;durP1;ratioP1;P1;durP2;ratioP2;P2;SDS_P1;SDS_P2;PMS_P1;PMS_P2;Temp;Humidity;BMP_temperature;BMP_pressure;BME280_temperature;BME280_humidity;BME280_pressure;Samples;Min_cycle;Max_cycle;Signal;HPM_P1;HPM_P2
2023/12/10 00:01:02;;;;;;;37.53;6.60;;;;;;;9.01;96.42;148408.94;5014280;28;20242;-58
2023/12/10 00:03:30;;;;;;;22.10;4.87;;;;;;;8.99;95.33;148404.00;5019682;28;20233;-57
2023/12/10 00:05:57;;;;;;;32.70;5.97;;;;;;;8.95;95.37;148395.28;5012906;28;20225;-57
2023/12/10 00:08:23;;;;;;;34.97;6.37;;;;;;;8.93;94.83;148390.31;5019162;28;20807;-57
2023/12/10 00:10:50;;;;;;;28.43;3.87;;;;;;;8.88;96.15;148377.88;5017791;28;20221;-58
2023/12/10 00:13:17;;;;;;;21.97;4.63;;;;;;;8.91;95.38;148385.31;5017016;28;20269;-58
2023/12/10 00:15:44;;;;;;;30.73;4.23;;;;;;;8.86;95.55;148374.16;5017843;28;20223;-57
2023/12/10 00:18:10;;;;;;;30.60;4.23;;;;;;;8.89;95.22;148380.34;5017218;28;20241;-58
2023/12/10 00:20:38;;;;;;;29.37;4.27;;;;;;;8.94;94.49;148391.56;5021562;28;20310;-58
2023/12/10 00:23:07;;;;;;;26.83;4.27;;;;;;;8.97;95.15;148399.03;5013553;28;20336;-56
2023/12/10 00:25:34;;;;;;;35.73;4.43;;;;;;;9.07;93.16;148423.88;5018832;28;20220;-57
2023/12/10 00:28:00;;;;;;;28.57;4.67;;;;;;;8.95;95.51;148395.28;5015552;28;20236;-57
2023/12/10 00:30:27;;;;;;;36.97;4.90;;;;;;;8.92;94.74;148387.81;5020269;28;20758;-58
2023/12/10 00:32:54;;;;;;;30.77;4.87;;;;;;;8.90;92.84;148382.84;5014023;28;20222;-58
2023/12/10 00:35:21;;;;;;;27.90;3.93;;;;;;;8.81;96.69;148360.44;5020421;28;20230;-57
2023/12/10 00:37:49;;;;;;;31.90;4.63;;;;;;;8.95;91.91;148395.28;5015929;28;20637;-58
2023/12/10 00:40:16;;;;;;;32.73;4.70;;;;;;;8.91;93.61;148385.31;5009464;28;20238;-58
2023/12/10 00:42:43;;;;;;;26.30;4.80;;;;;;;8.83;94.08;148365.44;5011755;28;20228;-55
2023/12/10 00:45:10;;;;;;;33.13;4.77;;;;;;;8.83;92.29;148366.69;5018591;28;20227;-57
2023/12/10 00:47:37;;;;;;;32.13;4.80;;;;;;;8.93;91.59;148390.31;5016193;28;20221;-57
2023/12/10 00:50:04;;;;;;;29.70;4.87;;;;;;;8.95;90.98;148395.28;5016647;28;20238;-57
2023/12/10 00:52:31;;;;;;;22.30;4.03;;;;;;;9.00;90.29;148406.50;5016094;28;20252;-58
2023/12/10 00:54:59;;;;;;;27.50;4.87;;;;;;;8.93;90.33;148389.09;5016909;28;20317;-58
2023/12/10 00:57:26;;;;;;;29.83;4.03;;;;;;;8.97;89.24;148399.03;5019830;28;20311;-58
2023/12/10 00:59:53;;;;;;;32.90;4.50;;;;;;;8.96;89.94;148396.53;5015766;28;20215;-57
2023/12/10 01:02:20;;;;;;;31.30;4.00;;;;;;;8.85;93.17;148370.41;5017760;28;20243;-57
2023/12/10 01:04:46;;;;;;;28.73;4.07;;;;;;;8.86;91.12;148374.16;5015157;28;20690;-58
2023/12/10 01:07:13;;;;;;;30.10;4.37;;;;;;;8.88;91.83;148376.66;5017816;28;20265;-57
2023/12/10 01:09:40;;;;;;;24.30;4.07;;;;;;;8.77;93.59;148351.75;5009433;28;20231;-58
2023/12/10 01:12:08;;;;;;;28.67;4.10;;;;;;;8.74;92.54;148344.28;5014570;28;20229;-59
2023/12/10 01:14:36;;;;;;;36.73;5.63;;;;;;;8.81;90.95;148361.72;5015827;28;20303;-58
2023/12/10 01:17:03;;;;;;;28.00;4.13;;;;;;;8.80;91.88;148357.97;5013898;28;20236;-57
2023/12/10 01:19:30;;;;;;;24.03;4.93;;;;;;;8.82;91.24;148364.19;5018274;28;20329;-59
2023/12/10 01:21:57;;;;;;;30.90;4.67;;;;;;;8.89;90.50;148379.13;5015734;28;20893;-58
2023/12/10 01:24:24;;;;;;;22.70;3.53;;;;;;;9.06;88.04;148420.16;5017439;28;20241;-59
2023/12/10 01:26:50;;;;;;;26.93;5.07;;;;;;;9.06;86.94;148421.38;5013494;28;20225;-58
2023/12/10 01:29:18;;;;;;;20.47;3.43;;;;;;;9.04;87.21;148415.19;5017384;28;20256;-58
2023/12/10 01:31:45;;;;;;;24.70;4.00;;;;;;;9.01;85.41;148410.22;5014308;28;20232;-57
2023/12/10 01:34:12;;;;;;;26.33;3.77;;;;;;;8.95;87.71;148395.28;5018259;28;20441;-57
2023/12/10 01:36:40;;;;;;;28.87;3.87;;;;;;;9.03;85.50;148412.69;5016540;28;20311;-58
2023/12/10 01:39:06;;;;;;;19.87;3.47;;;;;;;8.98;86.27;148402.75;5012771;28;20568;-58
2023/12/10 01:41:33;;;;;;;23.00;3.90;;;;;;;8.81;90.41;148361.72;5017714;28;20465;-57
2023/12/10 01:44:00;;;;;;;26.87;3.93;;;;;;;8.54;94.71;148297.03;5007097;28;20302;-59
2023/12/10 01:46:55;;;;;;;22.93;3.87;;;;;;;8.36;99.13;148253.47;5003957;28;20246;-57
2023/12/10 01:49:25;;;;;;;29.50;4.33;;;;;;;8.08;100.00;148185.03;4983591;28;20236;-58
2023/12/10 01:51:53;;;;;;;29.47;3.63;;;;;;;7.97;100.00;148160.19;4978907;28;20316;-57
2023/12/10 01:54:22;;;;;;;31.23;4.87;;;;;;;7.93;100.00;148149.00;4956748;28;20637;-59
2023/12/10 01:56:51;;;;;;;31.90;3.67;;;;;;;7.96;100.00;148156.47;4950808;28;20224;-57
2023/12/10 01:59:20;;;;;;;22.27;3.80;;;;;;;8.03;99.71;148173.88;5014584;28;20231;-58
2023/12/10 02:01:47;;;;;;;17.10;3.40;;;;;;;8.07;99.52;148183.81;5013225;28;20312;-58
2023/12/10 02:04:16;;;;;;;24.13;3.57;;;;;;;8.13;99.05;148198.75;5019083;28;20227;-58
2023/12/10 02:06:43;;;;;;;29.07;3.80;;;;;;;8.14;97.94;148199.97;5012391;28;20223;-58
2023/12/10 02:09:12;;;;;;;19.33;3.27;;;;;;;8.17;97.79;148206.22;4999919;28;20755;-58
2023/12/10 02:11:39;;;;;;;20.70;2.97;;;;;;;8.33;93.66;148246.00;5021604;28;20734;-54
2023/12/10 02:14:06;;;;;;;22.90;2.80;;;;;;;8.32;94.82;148242.25;5016480;28;20311;-59
2023/12/10 02:16:33;;;;;;;18.80;2.57;;;;;;;8.35;92.44;148249.72;5020510;28;20228;-61
2023/12/10 02:19:00;;;;;;;17.73;3.27;;;;;;;8.41;92.48;148264.63;5018362;28;20220;-59
2023/12/10 02:21:32;;;;;;;15.70;2.83;;;;;;;8.42;90.85;148267.13;5020088;28;20255;-59
2023/12/10 02:24:04;;;;;;;20.43;3.23;;;;;;;8.50;90.45;148285.81;5019695;28;20722;-59
2023/12/10 02:26:32;;;;;;;14.33;2.53;;;;;;;8.50;91.92;148285.81;5020201;28;20381;-60
2023/12/10 02:28:59;;;;;;;17.73;3.10;;;;;;;8.49;90.36;148284.59;5019366;28;20238;-60
2023/12/10 02:31:26;;;;;;;16.73;2.77;;;;;;;8.50;90.02;148287.06;5011246;28;20232;-60
2023/12/10 02:33:53;;;;;;;20.33;2.57;;;;;;;8.44;91.37;148272.09;5016529;28;20311;-58
2023/12/10 02:36:20;;;;;;;18.07;3.00;;;;;;;8.46;90.76;148275.84;5015358;28;20314;-59
2023/12/10 02:38:49;;;;;;;19.40;2.60;;;;;;;8.44;90.27;148272.09;5015674;28;20228;-60
2023/12/10 02:41:16;;;;;;;14.33;2.67;;;;;;;8.36;91.68;148253.47;5020189;28;20260;-59
2023/12/10 02:43:44;;;;;;;20.70;2.93;;;;;;;8.32;93.84;148243.53;5017909;28;20274;-59
2023/12/10 02:46:10;;;;;;;21.07;3.23;;;;;;;8.34;91.36;148247.22;5019555;28;20227;-59
2023/12/10 02:48:37;;;;;;;19.80;2.97;;;;;;;8.24;93.56;148224.84;5020050;28;20223;-60
2023/12/10 02:51:04;;;;;;;23.47;2.90;;;;;;;8.27;93.05;148231.09;5017930;28;20700;-59
2023/12/10 02:53:31;;;;;;;16.77;2.90;;;;;;;8.13;94.75;148198.75;5018762;28;20680;-59
2023/12/10 02:55:58;;;;;;;15.47;3.07;;;;;;;8.12;94.55;148196.25;5017214;28;20247;-59
2023/12/10 02:58:25;;;;;;;20.20;2.50;;;;;;;8.11;93.61;148193.78;5019655;28;20239;-59
2023/12/10 03:00:54;;;;;;;17.63;2.83;;;;;;;8.18;93.35;148208.69;5011481;28;20250;-58
2023/12/10 03:03:20;;;;;;;20.70;2.90;;;;;;;8.14;92.69;148199.97;5020639;28;20270;-59
2023/12/10 03:05:47;;;;;;;24.27;3.87;;;;;;;8.13;92.97;148198.75;5017511;28;20244;-59
2023/12/10 03:08:14;;;;;;;19.53;2.80;;;;;;;8.13;92.66;148198.75;5019951;28;20232;-63
2023/12/10 03:10:41;;;;;;;14.63;2.70;;;;;;;8.14;93.79;148199.97;5016634;28;20588;-60
2023/12/10 03:13:07;;;;;;;16.23;3.70;;;;;;;8.23;90.33;148221.13;5019503;28;20267;-60
2023/12/10 03:15:34;;;;;;;23.50;2.70;;;;;;;8.32;87.31;148242.25;5019509;28;20229;-60
2023/12/10 03:18:02;;;;;;;21.73;3.10;;;;;;;8.25;89.28;148226.09;5018787;28;20232;-59
2023/12/10 03:20:29;;;;;;;13.80;2.80;;;;;;;8.18;88.92;148208.69;5019161;28;20284;-60
2023/12/10 03:22:56;;;;;;;26.90;3.93;;;;;;;8.22;87.99;148218.66;5016492;28;20270;-59
2023/12/10 03:25:23;;;;;;;19.37;3.63;;;;;;;8.10;90.19;148191.28;5021675;28;20232;-59
2023/12/10 03:27:49;;;;;;;21.77;3.20;;;;;;;8.12;88.21;148195.00;5016892;28;20236;-60
2023/12/10 03:30:16;;;;;;;24.43;3.23;;;;;;;8.05;88.43;148178.84;5018025;28;20227;-59
2023/12/10 03:32:43;;;;;;;18.97;2.70;;;;;;;8.12;85.88;148195.00;5019745;28;20319;-60
2023/12/10 03:35:11;;;;;;;26.53;3.20;;;;;;;8.04;88.89;148176.38;5018252;28;20236;-59
2023/12/10 03:37:38;;;;;;;21.77;3.77;;;;;;;8.01;88.86;148168.91;5018501;28;20352;-59
2023/12/10 03:40:05;;;;;;;23.23;3.20;;;;;;;8.09;86.31;148187.53;5016480;28;20237;-59
2023/12/10 03:42:32;;;;;;;16.30;2.60;;;;;;;8.03;87.62;148173.88;5018702;28;20232;-59
2023/12/10 03:44:58;;;;;;;20.53;2.80;;;;;;;8.10;85.63;148191.28;5015220;28;20572;-59
2023/12/10 03:47:25;;;;;;;12.13;2.13;;;;;;;8.13;84.20;148197.47;5009543;28;20235;-59
2023/12/10 03:49:52;;;;;;;21.17;2.73;;;;;;;8.11;86.46;148192.50;5016268;28;20231;-59
2023/12/10 03:52:20;;;;;;;16.83;3.20;;;;;;;8.04;86.93;148175.09;5017549;28;20319;-60
2023/12/10 03:54:46;;;;;;;17.20;2.53;;;;;;;8.07;85.59;148182.56;5017269;28;20232;-59
2023/12/10 03:57:13;;;;;;;12.37;2.87;;;;;;;8.05;86.79;148178.84;5019468;28;20569;-59
2023/12/10 03:59:40;;;;;;;15.93;2.43;;;;;;;8.10;85.44;148191.28;5017848;28;20335;-59
2023/12/10 04:02:07;;;;;;;18.90;2.87;;;;;;;8.05;85.47;148177.59;5018523;28;20220;-59
2023/12/10 04:04:33;;;;;;;24.33;2.47;;;;;;;7.95;87.32;148155.19;5018602;28;20219;-59
2023/12/10 04:07:00;;;;;;;19.30;3.10;;;;;;;8.01;85.24;148167.63;5017252;28;20216;-59
2023/12/10 04:09:28;;;;;;;21.33;3.50;;;;;;;8.02;85.39;148171.41;5016425;28;20234;-58
2023/12/10 04:11:56;;;;;;;24.10;3.57;;;;;;;8.10;83.48;148190.03;5014197;28;20233;-58
2023/12/10 04:14:23;;;;;;;18.87;2.87;;;;;;;8.09;84.21;148188.81;5018082;28;20262;-58
2023/12/10 04:16:50;;;;;;;28.07;4.10;;;;;;;8.22;80.72;148218.66;5016728;28;20274;-57
2023/12/10 04:19:16;;;;;;;15.90;2.43;;;;;;;8.17;83.02;148206.22;4994976;28;20267;-57
2023/12/10 04:21:43;;;;;;;16.90;2.73;;;;;;;8.19;81.50;148211.19;5012658;28;20252;-58
2023/12/10 04:24:10;;;;;;;21.93;2.87;;;;;;;8.17;82.99;148207.44;5017900;28;20404;-56
2023/12/10 04:26:38;;;;;;;13.77;2.70;;;;;;;8.10;82.99;148191.28;5019528;28;20228;-57
2023/12/10 04:29:05;;;;;;;17.27;2.10;;;;;;;8.09;84.90;148187.53;5017461;28;20240;-57
2023/12/10 04:31:31;;;;;;;18.50;3.70;;;;;;;8.06;83.73;148181.34;5237225;22;20771;-55
2023/12/10 04:33:58;;;;;;;16.77;3.37;;;;;;;8.13;82.94;148198.75;5000168;28;20225;-57
2023/12/10 04:36:25;;;;;;;13.97;2.43;;;;;;;8.15;82.53;148201.22;5005318;28;20233;-57
2023/12/10 04:38:51;;;;;;;20.67;2.60;;;;;;;8.12;81.97;148196.25;5003319;28;20229;-57
2023/12/10 04:41:18;;;;;;;19.30;2.67;;;;;;;8.19;80.83;148212.41;5002994;28;20251;-57
2023/12/10 04:43:49;;;;;;;20.13;2.83;;;;;;;8.26;81.69;148228.59;5001995;28;20255;-56
2023/12/10 04:46:16;;;;;;;23.67;2.97;;;;;;;8.14;83.65;148199.97;5005122;28;20240;-57
2023/12/10 04:48:43;;;;;;;15.30;3.10;;;;;;;8.17;82.54;148206.22;5002423;28;20226;-57
2023/12/10 04:51:10;;;;;;;15.10;2.57;;;;;;;8.08;83.72;148185.03;5004929;28;20279;-58
2023/12/10 04:53:37;;;;;;;21.00;2.93;;;;;;;8.07;82.79;148183.81;5004296;28;20227;-58
2023/12/10 04:56:04;;;;;;;11.83;2.10;;;;;;;8.17;80.79;148207.44;5003643;28;20242;-57
2023/12/10 04:58:30;;;;;;;17.47;2.57;;;;;;;8.13;81.97;148198.75;5006133;28;20225;-58
2023/12/10 05:00:58;;;;;;;13.70;2.47;;;;;;;8.14;81.50;148199.97;5003273;28;20229;-58
2023/12/10 05:03:25;;;;;;;12.73;2.10;;;;;;;8.15;79.93;148202.47;5004986;28;20325;-58
2023/12/10 05:05:52;;;;;;;15.37;2.30;;;;;;;8.13;79.81;148198.75;5003482;28;20224;-57
2023/12/10 05:08:18;;;;;;;18.57;2.87;;;;;;;8.10;81.06;148191.28;5005709;28;20327;-58
2023/12/10 05:10:45;;;;;;;17.10;4.07;;;;;;;8.02;82.81;148170.13;5005985;28;20231;-57
2023/12/10 05:13:12;;;;;;;21.70;2.33;;;;;;;7.99;84.23;148163.94;5025648;28;20714;-57
2023/12/10 05:15:38;;;;;;;17.40;2.30;;;;;;;7.94;83.45;148151.50;5025707;28;20286;-57
2023/12/10 05:18:07;;;;;;;17.20;2.30;;;;;;;8.02;83.17;148171.41;5022573;28;20239;-58
2023/12/10 05:20:34;;;;;;;15.93;2.73;;;;;;;7.92;83.32;148146.53;5025527;28;20310;-57
2023/12/10 05:23:00;;;;;;;22.03;2.70;;;;;;;7.94;83.03;148151.50;5021713;28;20220;-55
2023/12/10 05:25:28;;;;;;;13.63;2.43;;;;;;;7.91;83.34;148144.03;5025216;28;20322;-58
2023/12/10 05:27:55;;;;;;;11.57;2.10;;;;;;;7.88;82.98;148137.84;5022260;28;20698;-57
2023/12/10 05:30:22;;;;;;;23.57;2.47;;;;;;;7.87;83.50;148135.34;5025443;28;20312;-58
2023/12/10 05:32:48;;;;;;;21.30;2.30;;;;;;;7.92;83.19;148146.53;5022112;28;20235;-57
2023/12/10 05:35:16;;;;;;;22.30;2.70;;;;;;;7.93;82.23;148150.28;5025022;28;20335;-57
2023/12/10 05:37:43;;;;;;;13.67;2.20;;;;;;;7.90;83.54;148142.81;5013484;28;20716;-58
2023/12/10 05:40:11;;;;;;;13.07;2.77;;;;;;;7.93;82.79;148150.28;5024201;28;20257;-58
2023/12/10 05:42:37;;;;;;;16.27;3.03;;;;;;;8.01;82.08;148168.91;5023321;28;20235;-58
2023/12/10 05:45:05;;;;;;;10.60;1.80;;;;;;;7.94;81.57;148151.50;5020687;28;20238;-55
2023/12/10 05:47:31;;;;;;;20.00;2.33;;;;;;;7.95;81.73;148155.19;5024798;28;20735;-58
2023/12/10 05:49:58;;;;;;;16.70;2.20;;;;;;;7.95;81.47;148155.19;5022490;28;20224;-57
2023/12/10 05:52:26;;;;;;;19.27;2.67;;;;;;;7.92;81.93;148147.78;5024656;28;20232;-58
2023/12/10 05:54:53;;;;;;;21.30;3.77;;;;;;;7.98;81.44;148161.44;5021988;28;20255;-57
2023/12/10 05:57:20;;;;;;;14.70;2.10;;;;;;;8.01;80.43;148168.91;5025195;28;20315;-57
2023/12/10 05:59:46;;;;;;;16.93;2.50;;;;;;;7.92;82.54;148147.78;5018860;28;20708;-58
2023/12/10 06:02:13;;;;;;;18.27;2.77;;;;;;;7.90;83.37;148141.56;5023326;28;20243;-57
2023/12/10 06:04:40;;;;;;;12.90;2.30;;;;;;;8.03;80.73;148172.59;5024771;28;20216;-57
2023/12/10 06:07:07;;;;;;;16.90;2.30;;;;;;;7.94;82.26;148152.75;5003511;28;20228;-57
2023/12/10 06:09:36;;;;;;;11.00;2.40;;;;;;;7.89;81.66;148140.34;5024242;28;20331;-55
2023/12/10 06:12:02;;;;;;;19.13;2.47;;;;;;;7.96;79.75;148157.69;5022162;28;20231;-58
2023/12/10 06:14:29;;;;;;;15.30;2.30;;;;;;;7.93;82.72;148149.00;5024700;28;20259;-57
2023/12/10 06:16:56;;;;;;;16.57;2.57;;;;;;;7.89;83.43;148140.34;5022300;28;20222;-58
2023/12/10 06:19:23;;;;;;;14.40;2.50;;;;;;;7.86;81.66;148132.88;5024887;28;20628;-57
2023/12/10 06:21:49;;;;;;;17.67;2.50;;;;;;;7.94;82.02;148152.75;5022193;28;20303;-58
2023/12/10 06:24:16;;;;;;;14.03;2.10;;;;;;;7.91;82.50;148144.03;5024435;28;20750;-56
2023/12/10 06:26:44;;;;;;;16.10;2.00;;;;;;;7.89;82.21;148139.06;5022553;28;20285;-58
2023/12/10 06:29:11;;;;;;;18.33;2.83;;;;;;;7.96;81.10;148157.69;5014369;28;20227;-57
2023/12/10 06:31:38;;;;;;;13.60;1.97;;;;;;;7.89;83.59;148139.06;5024418;28;20232;-57
2023/12/10 06:34:05;;;;;;;21.43;2.80;;;;;;;7.98;81.40;148161.44;5022013;28;20234;-57
2023/12/10 06:36:31;;;;;;;23.87;2.77;;;;;;;7.97;80.49;148158.97;5024713;28;20240;-57
2023/12/10 06:38:58;;;;;;;14.30;2.07;;;;;;;7.93;81.48;148150.28;5022134;28;20220;-55
2023/12/10 06:41:25;;;;;;;19.43;2.27;;;;;;;8.02;79.62;148170.13;5024155;28;20227;-57
2023/12/10 06:43:53;;;;;;;16.97;2.47;;;;;;;8.01;82.00;148167.63;5021990;28;20221;-56
2023/12/10 06:46:19;;;;;;;16.33;2.73;;;;;;;8.01;81.00;148168.91;5024314;28;20317;-57
2023/12/10 06:48:47;;;;;;;13.60;2.30;;;;;;;7.98;82.16;148161.44;5010382;28;20216;-58
2023/12/10 06:51:14;;;;;;;21.27;2.30;;;;;;;8.08;79.15;148186.31;4998580;28;20573;-57
2023/12/10 06:53:41;;;;;;;18.43;2.50;;;;;;;8.14;79.38;148199.97;5028031;28;20223;-57
2023/12/10 06:56:08;;;;;;;16.30;2.97;;;;;;;8.19;77.95;148211.19;5025101;28;20235;-58
2023/12/10 06:58:35;;;;;;;18.00;3.30;;;;;;;8.07;80.60;148182.56;5024607;28;20227;-57
2023/12/10 07:01:04;;;;;;;16.20;2.40;;;;;;;8.08;79.88;148185.03;5024543;28;20240;-58
2023/12/10 07:03:31;;;;;;;12.97;2.57;;;;;;;8.07;80.78;148182.56;5026862;28;20286;-56
2023/12/10 07:05:58;;;;;;;11.63;2.57;;;;;;;8.09;79.09;148187.53;5025477;28;20958;-56
2023/12/10 07:08:25;;;;;;;22.43;3.20;;;;;;;8.04;80.79;148175.09;5027832;28;20231;-58
2023/12/10 07:10:52;;;;;;;20.27;3.37;;;;;;;8.01;81.03;148167.63;5025075;28;20321;-57
2023/12/10 07:13:19;;;;;;;33.63;17.60;;;;;;;8.00;82.50;148166.41;5027529;28;20242;-54
2023/12/10 07:15:46;;;;;;;15.20;3.03;;;;;;;8.00;81.85;148166.41;5024977;28;20239;-58
2023/12/10 07:18:14;;;;;;;20.37;2.27;;;;;;;7.99;80.90;148163.94;5027508;28;20242;-58
2023/12/10 07:20:41;;;;;;;20.13;4.07;;;;;;;8.02;80.90;148170.13;5025848;28;20291;-57
2023/12/10 07:23:07;;;;;;;16.73;2.63;;;;;;;8.06;79.55;148180.06;5022769;28;20707;-57
2023/12/10 07:25:35;;;;;;;16.33;3.00;;;;;;;8.07;80.56;148183.81;5026217;28;20239;-58
2023/12/10 07:28:02;;;;;;;17.30;2.50;;;;;;;8.09;80.21;148188.81;5025141;28;20248;-57
2023/12/10 07:30:29;;;;;;;22.53;2.07;;;;;;;8.13;80.75;148197.47;5027411;28;20227;-58
2023/12/10 07:32:56;;;;;;;10.90;1.80;;;;;;;8.13;81.09;148197.47;5024511;28;20830;-57
2023/12/10 07:35:24;;;;;;;16.73;2.67;;;;;;;8.15;81.38;148201.22;5027345;28;20241;-55
2023/12/10 07:37:51;;;;;;;13.20;2.30;;;;;;;8.13;81.56;148197.47;5023975;28;20865;-56
2023/12/10 07:40:18;;;;;;;13.83;2.57;;;;;;;8.14;81.16;148199.97;5017452;28;20240;-57
2023/12/10 07:42:44;;;;;;;15.53;3.23;;;;;;;8.09;82.12;148188.81;5024017;28;20255;-58
2023/12/10 07:45:11;;;;;;;22.87;2.50;;;;;;;8.04;81.88;148175.09;5026400;28;20285;-57
2023/12/10 07:47:38;;;;;;;16.03;3.47;;;;;;;8.07;83.05;148183.81;5026900;28;20311;-58
2023/12/10 07:50:06;;;;;;;11.77;2.00;;;;;;;8.04;83.74;148175.09;5024657;28;20320;-57
2023/12/10 07:52:34;;;;;;;17.37;2.73;;;;;;;7.98;83.88;148162.66;5025849;28;20719;-57
2023/12/10 07:55:02;;;;;;;12.27;2.40;;;;;;;7.95;84.06;148153.97;5024032;28;20219;-57
2023/12/10 07:57:29;;;;;;;12.83;2.97;;;;;;;7.89;84.44;148139.06;5027016;28;20240;-57
2023/12/10 07:59:56;;;;;;;27.37;3.43;;;;;;;7.90;85.07;148141.56;5024460;28;20223;-54
2023/12/10 08:02:23;;;;;;;23.10;3.33;;;;;;;7.91;84.92;148144.03;5025347;28;20564;-57
2023/12/10 08:04:50;;;;;;;20.57;2.93;;;;;;;7.98;84.43;148161.44;5023211;28;20632;-55
2023/12/10 08:07:16;;;;;;;19.30;2.57;;;;;;;7.97;83.98;148158.97;5027124;28;20760;-55
2023/12/10 08:09:45;;;;;;;18.70;2.57;;;;;;;7.99;84.41;148163.94;5023824;28;20215;-57
2023/12/10 08:12:11;;;;;;;19.33;2.63;;;;;;;7.97;84.72;148158.97;5024353;28;20723;-56
2023/12/10 08:14:38;;;;;;;16.93;2.73;;;;;;;7.97;85.05;148158.97;5022572;28;22631;-57
2023/12/10 08:17:05;;;;;;;17.87;2.77;;;;;;;7.95;84.54;148155.19;5022819;28;20335;-55
2023/12/10 08:19:31;;;;;;;19.23;2.23;;;;;;;7.98;82.83;148161.44;5025322;28;20234;-54
2023/12/10 08:21:58;;;;;;;18.17;2.40;;;;;;;8.02;83.54;148170.13;5021096;28;20228;-56
2023/12/10 08:24:26;;;;;;;26.13;3.37;;;;;;;7.99;84.43;148163.94;5025256;28;20339;-54
2023/12/10 08:26:54;;;;;;;14.73;1.93;;;;;;;8.04;83.55;148175.09;5013412;28;20236;-56
2023/12/10 08:29:21;;;;;;;20.53;2.90;;;;;;;8.04;85.14;148175.09;5024920;28;20238;-57
2023/12/10 08:31:48;;;;;;;16.80;2.40;;;;;;;8.08;84.67;148185.03;5023233;28;20239;-56
2023/12/10 08:34:15;;;;;;;13.87;2.40;;;;;;;8.08;83.64;148186.31;5026160;28;20234;-57
2023/12/10 08:36:42;;;;;;;16.93;2.47;;;;;;;8.09;84.19;148187.53;5023651;28;20534;-56
2023/12/10 08:39:08;;;;;;;22.67;2.73;;;;;;;8.07;84.99;148183.81;5025894;28;20251;-57
2023/12/10 08:41:35;;;;;;;20.17;2.57;;;;;;;8.05;83.71;148178.84;5023438;28;20694;-57
2023/12/10 08:44:03;;;;;;;19.47;2.73;;;;;;;8.08;84.17;148186.31;5022320;28;20334;-57
2023/12/10 08:46:30;;;;;;;12.23;2.00;;;;;;;8.11;84.88;148193.78;5025293;28;20285;-57
2023/12/10 08:48:57;;;;;;;18.00;3.10;;;;;;;8.11;84.46;148193.78;5022462;28;20313;-56
2023/12/10 08:51:24;;;;;;;15.37;2.67;;;;;;;8.07;85.80;148182.56;5024936;28;20334;-57
2023/12/10 08:53:50;;;;;;;15.93;3.23;;;;;;;8.10;85.97;148191.28;5023273;28;20227;-55
2023/12/10 08:56:17;;;;;;;16.77;3.07;;;;;;;8.08;88.88;148186.31;5025844;28;20238;-57
2023/12/10 08:58:47;;;;;;;19.53;3.73;;;;;;;7.87;92.05;148135.34;5023154;28;20224;-56
2023/12/10 09:01:16;;;;;;;23.93;2.57;;;;;;;7.66;92.52;148085.63;5008181;28;20311;-58
2023/12/10 09:03:45;;;;;;;14.37;3.67;;;;;;;7.60;93.61;148069.44;5023121;28;20242;-57
2023/12/10 09:06:11;;;;;;;18.00;3.33;;;;;;;7.56;95.10;148059.50;5025658;28;20235;-55
2023/12/10 09:08:39;;;;;;;24.17;9.27;;;;;;;7.51;95.52;148049.56;5025277;28;20314;-56
2023/12/10 09:11:06;;;;;;;20.77;5.73;;;;;;;7.46;96.16;148035.91;5023077;28;20635;-57
2023/12/10 09:13:33;;;;;;;22.33;3.33;;;;;;;7.51;96.52;148049.56;5025171;28;20322;-56
2023/12/10 09:16:00;;;;;;;22.63;4.67;;;;;;;7.53;98.73;148053.31;5023036;28;20224;-56
2023/12/10 09:18:28;;;;;;;17.13;2.87;;;;;;;7.56;97.96;148060.78;5025509;28;20231;-54
2023/12/10 09:20:55;;;;;;;16.87;4.20;;;;;;;7.59;97.04;148066.97;5022655;28;20227;-55
2023/12/10 09:23:22;;;;;;;18.03;2.93;;;;;;;7.64;95.76;148079.38;5025386;28;20232;-56
2023/12/10 09:25:49;;;;;;;17.57;3.60;;;;;;;7.63;95.21;148076.91;5021616;28;20220;-57
2023/12/10 09:28:15;;;;;;;15.37;3.67;;;;;;;7.71;95.46;148095.56;5024451;28;20239;-56
2023/12/10 09:30:42;;;;;;;17.17;3.33;;;;;;;7.69;94.74;148091.81;5022830;28;20238;-58
2023/12/10 09:33:09;;;;;;;16.63;2.47;;;;;;;7.77;93.39;148110.50;5024766;28;20259;-57
2023/12/10 09:35:37;;;;;;;23.53;3.07;;;;;;;7.82;92.14;148122.94;5025020;28;20273;-56
2023/12/10 09:38:04;;;;;;;18.30;3.47;;;;;;;7.85;91.70;148129.13;5022200;28;20239;-57
2023/12/10 09:40:33;;;;;;;14.10;2.87;;;;;;;7.86;92.19;148131.59;5024920;28;20228;-57
2023/12/10 09:43:01;;;;;;;19.23;3.30;;;;;;;7.88;91.31;148137.84;5022091;28;20305;-56
2023/12/10 09:45:28;;;;;;;19.17;4.00;;;;;;;7.96;91.34;148156.47;5023392;28;20220;-57
2023/12/10 09:47:55;;;;;;;16.37;3.17;;;;;;;7.96;90.17;148156.47;5022716;28;20249;-55
2023/12/10 09:50:22;;;;;;;15.27;2.73;;;;;;;8.00;90.89;148166.41;5024846;28;20227;-57
2023/12/10 09:52:50;;;;;;;11.90;2.23;;;;;;;8.09;88.42;148187.53;5022004;28;20696;-57
2023/12/10 09:55:18;;;;;;;19.07;6.10;;;;;;;8.14;88.70;148199.97;5024677;28;20236;-57
2023/12/10 09:57:44;;;;;;;19.93;4.17;;;;;;;8.30;89.07;148237.28;5021678;28;20227;-57
2023/12/10 10:00:12;;;;;;;17.80;2.80;;;;;;;8.37;86.34;148254.69;5025002;28;20243;-54
2023/12/10 10:02:39;;;;;;;14.07;3.77;;;;;;;8.41;86.11;148264.63;5024814;28;22119;-56
2023/12/10 10:05:10;;;;;;;16.20;3.33;;;;;;;8.41;87.12;148264.63;5022064;28;20247;-56
2023/12/10 10:07:37;;;;;;;16.37;2.73;;;;;;;8.44;85.57;148272.09;5024139;28;20239;-57
2023/12/10 10:10:10;;;;;;;11.13;2.20;;;;;;;8.48;85.93;148280.84;5022426;28;20243;-55
2023/12/10 10:12:37;;;;;;;15.30;2.73;;;;;;;8.52;85.71;148290.78;5021574;28;20759;-56
2023/12/10 10:15:05;;;;;;;14.70;2.50;;;;;;;8.50;85.19;148285.81;5020790;28;20229;-56
2023/12/10 10:17:34;;;;;;;17.97;3.03;;;;;;;8.47;85.63;148278.34;5022891;28;20228;-56
2023/12/10 10:20:04;;;;;;;17.07;2.83;;;;;;;8.47;85.30;148278.34;5021130;28;20228;-57
2023/12/10 10:22:31;;;;;;;11.80;2.50;;;;;;;8.46;86.59;148277.06;5021876;28;20594;-56
2023/12/10 10:24:59;;;;;;;17.70;2.57;;;;;;;8.47;86.62;148279.56;5021226;28;20287;-54
2023/12/10 10:27:27;;;;;;;19.73;3.63;;;;;;;8.52;85.82;148290.78;5028455;28;20251;-57
2023/12/10 10:29:55;;;;;;;12.53;2.30;;;;;;;8.59;85.15;148308.19;5023958;28;20227;-57
2023/12/10 10:32:23;;;;;;;11.47;2.17;;;;;;;8.56;85.46;148302.00;5026358;28;20323;-57
2023/12/10 10:34:51;;;;;;;12.63;2.53;;;;;;;8.60;86.13;148309.47;5024541;28;20232;-58
2023/12/10 10:37:19;;;;;;;16.00;2.50;;;;;;;8.69;84.56;148331.84;5008470;28;20323;-57
2023/12/10 10:39:49;;;;;;;10.63;2.07;;;;;;;8.62;84.94;148314.44;5023255;28;20225;-54
2023/12/10 10:42:16;;;;;;;19.37;4.90;;;;;;;8.59;85.94;148308.19;5027355;28;20241;-54
2023/12/10 10:44:46;;;;;;;15.80;2.80;;;;;;;8.59;85.15;148306.97;5024368;28;20230;-54
2023/12/10 10:47:12;;;;;;;20.30;4.10;;;;;;;8.71;84.79;148336.84;5025023;28;20233;-57
2023/12/10 10:49:43;;;;;;;13.10;2.63;;;;;;;8.67;85.10;148326.88;5027235;28;20247;-56
2023/12/10 10:52:16;;;;;;;15.17;2.70;;;;;;;8.69;84.07;148333.06;5024267;28;20326;-56
2023/12/10 10:54:44;;;;;;;15.73;5.27;;;;;;;8.80;84.10;148357.97;5024967;28;20271;-57
2023/12/10 10:57:11;;;;;;;11.50;2.83;;;;;;;8.86;84.59;148374.16;5027634;28;20246;-57
2023/12/10 10:59:38;;;;;;;20.43;3.80;;;;;;;8.79;83.05;148355.47;5027471;28;20292;-57
2023/12/10 11:02:10;;;;;;;14.07;3.57;;;;;;;8.86;82.52;148372.88;5025784;28;20231;-56
2023/12/10 11:04:39;;;;;;;20.00;4.03;;;;;;;9.11;83.13;148433.81;5026925;28;20258;-57
2023/12/10 11:07:07;;;;;;;32.00;11.60;;;;;;;9.16;84.00;148445.06;5025666;28;20243;-57
2023/12/10 11:09:54;;;;;;;20.73;7.33;;;;;;;9.27;83.27;148471.16;5027052;28;20221;-57
2023/12/10 11:12:46;;;;;;;14.37;2.67;;;;;;;9.38;81.83;148497.31;5024147;28;20732;-56
2023/12/10 11:15:27;;;;;;;14.07;2.63;;;;;;;9.24;80.67;148463.69;5025495;28;20368;-57
2023/12/10 11:17:58;;;;;;;15.50;2.93;;;;;;;9.26;82.63;148468.66;5024958;28;20315;-57
2023/12/10 11:20:36;;;;;;;15.33;2.50;;;;;;;9.25;81.18;148467.47;5027558;28;20241;-55
2023/12/10 11:23:05;;;;;;;14.77;3.40;;;;;;;9.28;82.15;148474.91;5004626;28;20229;-57
2023/12/10 11:25:32;;;;;;;13.10;2.30;;;;;;;9.47;79.43;148519.72;5027491;28;20224;-57